createdAt,value
2018-07-25T00:02:50.052Z,20.80
2018-07-25T00:07:53.231Z,20.60
2018-07-25T00:12:56.445Z,20.50
2018-07-25T00:17:59.421Z,20.60
2018-07-25T00:23:02.435Z,20.80
2018-07-25T00:28:05.677Z,20.90
2018-07-25T00:33:08.872Z,21.00
2018-07-25T00:38:11.888Z,21.00
2018-07-25T00:43:14.875Z,20.90
2018-07-25T00:48:17.887Z,20.90
2018-07-25T00:53:21.083Z,20.70
2018-07-25T00:58:24.091Z,20.80
2018-07-25T01:03:27.305Z,20.90
2018-07-25T01:08:30.429Z,20.90
2018-07-25T01:13:33.621Z,20.10
2018-07-25T01:18:36.819Z,19.90
2018-07-25T01:23:40.041Z,19.80
2018-07-25T01:28:43.020Z,19.80
2018-07-25T01:33:46.046Z,19.80
2018-07-25T01:38:49.047Z,19.60
2018-07-25T01:43:52.369Z,19.80
2018-07-25T01:48:55.467Z,20.00
2018-07-25T01:53:58.451Z,20.30
2018-07-25T01:59:01.880Z,20.30
2018-07-25T02:04:05.150Z,20.60
2018-07-25T02:09:09.921Z,20.70
2018-07-25T02:14:13.051Z,20.70
2018-07-25T02:19:16.248Z,20.70
2018-07-25T02:24:19.248Z,20.70
2018-07-25T02:29:22.228Z,20.70
2018-07-25T02:34:25.313Z,20.70
2018-07-25T02:39:28.444Z,20.70
2018-07-25T02:44:31.675Z,20.50
2018-07-25T02:49:34.812Z,20.40
2018-07-25T02:54:38.000Z,20.60
2018-07-25T02:59:41.046Z,20.40
2018-07-25T03:04:44.208Z,20.20
2018-07-25T03:09:47.423Z,20.00
2018-07-25T03:14:50.399Z,19.80
2018-07-25T03:19:53.396Z,19.80
2018-07-25T03:24:56.364Z,19.70
2018-07-25T03:29:59.389Z,19.90
2018-07-25T03:35:02.427Z,19.70
2018-07-25T03:40:05.643Z,19.70
2018-07-25T03:45:08.630Z,19.60
2018-07-25T03:50:11.588Z,19.60
2018-07-25T03:55:14.556Z,19.60
2018-07-25T04:00:17.585Z,19.60
2018-07-25T04:05:20.580Z,19.50
2018-07-25T04:10:23.580Z,19.80
2018-07-25T04:15:26.656Z,20.10
2018-07-25T04:20:29.657Z,20.10
2018-07-25T04:25:32.628Z,20.30
2018-07-25T04:30:35.613Z,20.30
2018-07-25T04:35:38.580Z,20.30
2018-07-25T04:40:41.571Z,20.40
2018-07-25T04:45:44.523Z,20.90
2018-07-25T04:50:47.483Z,21.10
2018-07-25T04:55:50.443Z,21.30
2018-07-25T05:00:53.609Z,22.40
2018-07-25T05:05:56.828Z,23.40
2018-07-25T05:10:59.919Z,24.60
2018-07-25T05:16:03.072Z,24.90
2018-07-25T05:21:06.419Z,24.90
2018-07-25T05:26:09.562Z,25.40
2018-07-25T05:31:12.576Z,25.90
2018-07-25T05:36:15.774Z,26.70
2018-07-25T05:41:18.797Z,27.10
2018-07-25T05:46:21.767Z,27.70
2018-07-25T05:51:24.877Z,28.10
2018-07-25T05:56:27.943Z,29.30
2018-07-25T06:01:30.992Z,28.60
2018-07-25T06:06:34.067Z,29.20
2018-07-25T06:11:37.581Z,29.20
2018-07-25T06:16:40.676Z,29.10
2018-07-25T06:21:43.691Z,30.00
2018-07-25T06:26:46.942Z,28.80
2018-07-25T06:31:50.049Z,26.50
2018-07-25T06:36:53.456Z,25.50
2018-07-25T06:41:56.624Z,25.20
2018-07-25T06:46:59.641Z,26.60
2018-07-25T06:52:02.982Z,27.60
2018-07-25T06:57:06.027Z,28.40
2018-07-25T07:02:09.179Z,26.70
2018-07-25T07:07:12.204Z,25.60
2018-07-25T07:12:15.407Z,24.70
2018-07-25T07:17:18.505Z,24.50
2018-07-25T07:22:22.088Z,24.40
2018-07-25T07:27:25.121Z,24.60
2018-07-25T07:32:28.137Z,24.70
2018-07-25T07:37:31.302Z,24.90
2018-07-25T07:42:34.439Z,25.00
2018-07-25T07:47:37.462Z,25.20
2018-07-25T07:52:40.608Z,26.30
2018-07-25T07:57:43.866Z,27.90
2018-07-25T08:02:47.185Z,27.40
2018-07-25T08:07:50.323Z,26.80
2018-07-25T08:12:53.316Z,26.70
2018-07-25T08:22:59.833Z,27.20
2018-07-25T08:28:02.812Z,28.20
2018-07-25T08:33:05.823Z,29.50
2018-07-25T08:38:08.820Z,32.00
2018-07-25T08:43:11.857Z,32.60
2018-07-25T08:53:17.884Z,33.50
2018-07-25T08:58:20.872Z,33.00
2018-07-25T09:03:24.346Z,33.00
2018-07-25T09:08:27.348Z,33.30
2018-07-25T09:13:30.489Z,33.70
2018-07-25T09:18:33.460Z,34.30
2018-07-25T09:23:36.689Z,33.50
2018-07-25T09:28:39.691Z,33.80
2018-07-25T09:33:43.045Z,33.30
2018-07-25T09:38:46.211Z,33.60
2018-07-25T09:43:49.216Z,33.90
2018-07-25T09:48:52.521Z,34.50
2018-07-25T09:53:55.672Z,34.20
2018-07-25T09:58:58.739Z,34.20
2018-07-25T10:04:01.788Z,34.40
2018-07-25T10:09:08.559Z,34.20
2018-07-25T10:14:11.749Z,33.90
2018-07-25T10:19:14.960Z,34.20
2018-07-25T10:24:18.260Z,33.80
2018-07-25T10:29:21.453Z,34.20
2018-07-25T10:34:24.678Z,33.70
2018-07-25T10:39:27.713Z,33.90
2018-07-25T10:44:30.729Z,33.70
2018-07-25T10:49:33.707Z,33.80
2018-07-25T10:54:36.901Z,32.80
2018-07-25T10:59:39.945Z,33.10
2018-07-25T11:04:43.207Z,34.00
2018-07-25T11:09:46.432Z,34.20
2018-07-25T11:14:49.836Z,34.60
2018-07-25T11:19:53.047Z,34.90
2018-07-25T11:24:56.144Z,35.20
2018-07-25T11:29:59.168Z,34.90
2018-07-25T11:35:03.243Z,34.60
2018-07-25T11:40:06.809Z,35.00
2018-07-25T11:45:09.834Z,34.60
2018-07-25T11:50:12.877Z,34.50
2018-07-25T11:55:15.894Z,34.70
2018-07-25T12:00:18.981Z,34.30
2018-07-25T12:05:22.000Z,34.40
2018-07-25T12:10:25.059Z,34.10
2018-07-25T12:15:28.063Z,33.90
2018-07-25T12:20:31.139Z,33.90
2018-07-25T12:25:34.192Z,34.30
2018-07-25T12:30:37.200Z,34.60
2018-07-25T12:35:40.221Z,34.90
2018-07-25T12:40:43.410Z,34.60
2018-07-25T12:45:46.409Z,35.10
2018-07-25T12:50:49.476Z,35.40
2018-07-25T12:55:52.485Z,35.40
2018-07-25T13:00:55.498Z,35.40
2018-07-25T13:05:58.901Z,35.30
2018-07-25T13:11:02.093Z,34.80
2018-07-25T13:16:05.679Z,34.90
2018-07-25T13:21:08.756Z,35.30
2018-07-25T13:26:11.805Z,34.30
2018-07-25T13:31:14.887Z,33.60
2018-07-25T13:36:18.104Z,34.20
2018-07-25T13:41:21.252Z,34.30
2018-07-25T13:46:24.452Z,34.30
2018-07-25T13:51:27.443Z,34.60
2018-07-25T13:56:30.412Z,34.80
2018-07-25T14:01:33.514Z,34.90
2018-07-25T14:06:36.675Z,35.10
2018-07-25T14:11:40.310Z,35.30
2018-07-25T14:16:43.327Z,35.40
2018-07-25T14:21:46.384Z,35.20
2018-07-25T14:26:49.610Z,35.80
2018-07-25T14:31:52.645Z,35.50
2018-07-25T14:36:55.962Z,35.00
2018-07-25T14:41:59.092Z,35.20
2018-07-25T14:47:02.296Z,35.20
2018-07-25T14:52:05.156Z,35.30
2018-07-25T14:57:08.303Z,35.90
2018-07-25T15:02:11.420Z,35.50
2018-07-25T15:07:14.617Z,35.80
2018-07-25T15:12:22.312Z,35.60
2018-07-25T15:17:25.566Z,35.80
2018-07-25T15:22:28.654Z,36.50
2018-07-25T15:27:31.695Z,36.80
2018-07-25T15:32:34.887Z,36.30
2018-07-25T15:37:38.272Z,36.30
2018-07-25T15:42:41.308Z,35.90
2018-07-25T15:47:44.384Z,35.80
2018-07-25T15:52:47.555Z,34.80
2018-07-25T15:57:50.984Z,34.30
2018-07-25T16:07:57.589Z,26.90
2018-07-25T16:13:00.709Z,27.20
2018-07-25T16:18:03.926Z,27.60
2018-07-25T16:23:07.137Z,27.80
2018-07-25T16:28:10.430Z,28.40
2018-07-25T16:33:13.628Z,28.70
2018-07-25T16:38:16.826Z,28.40
2018-07-25T16:43:19.967Z,28.30
2018-07-25T16:48:23.084Z,28.60
2018-07-25T16:53:26.447Z,28.70
2018-07-25T16:58:29.468Z,28.70
2018-07-25T17:03:32.560Z,28.80
2018-07-25T17:08:35.668Z,29.10
2018-07-25T17:13:38.742Z,29.40
2018-07-25T17:18:41.843Z,29.50
2018-07-25T17:23:44.885Z,29.70
2018-07-25T17:28:47.972Z,29.80
2018-07-25T17:33:51.092Z,30.00
2018-07-25T17:38:54.300Z,30.10
2018-07-25T17:43:57.355Z,30.30
2018-07-25T17:49:00.482Z,30.20
2018-07-25T17:54:03.560Z,30.10
2018-07-25T17:59:06.950Z,29.70
2018-07-25T18:04:10.037Z,29.00
2018-07-25T18:09:13.256Z,28.70
2018-07-25T18:14:16.695Z,28.00
2018-07-25T18:19:19.985Z,27.80
2018-07-25T18:24:23.168Z,27.90
2018-07-25T18:29:26.364Z,28.20
2018-07-25T18:34:29.556Z,28.30
2018-07-25T18:39:32.824Z,28.30
2018-07-25T18:49:40.285Z,28.80
2018-07-25T18:54:43.680Z,28.60
2018-07-25T18:59:46.740Z,28.60
2018-07-25T19:04:50.020Z,28.60
2018-07-25T19:09:53.641Z,28.30
2018-07-25T19:15:02.788Z,28.40
2018-07-25T19:20:06.196Z,29.00
2018-07-25T19:25:09.506Z,29.20
2018-07-25T19:30:12.919Z,29.00
2018-07-25T19:35:16.036Z,28.40
2018-07-25T19:40:19.539Z,28.10
2018-07-25T19:45:23.056Z,27.60
2018-07-25T19:50:26.387Z,27.60
2018-07-25T19:55:29.784Z,27.40
2018-07-25T20:00:33.020Z,27.00
2018-07-25T20:05:36.096Z,26.90
2018-07-25T20:10:39.612Z,26.70
2018-07-25T20:15:48.540Z,26.50
2018-07-25T20:20:52.073Z,26.40
2018-07-25T20:25:55.322Z,26.30
2018-07-25T20:30:58.590Z,25.90
2018-07-25T20:36:02.374Z,25.80
2018-07-25T20:41:05.500Z,25.40
2018-07-25T20:46:09.142Z,25.50
2018-07-25T20:51:12.263Z,25.20
2018-07-25T20:56:15.665Z,25.40
2018-07-25T21:01:18.971Z,25.30
2018-07-25T21:06:22.064Z,25.50
2018-07-25T21:11:25.167Z,25.30
2018-07-25T21:16:28.300Z,25.30
2018-07-25T21:21:31.449Z,25.60
2018-07-25T21:26:34.494Z,25.70
2018-07-25T21:31:37.562Z,25.80
2018-07-25T21:36:40.632Z,26.00
2018-07-25T21:41:43.699Z,25.90
2018-07-25T21:46:46.686Z,25.70
2018-07-25T21:51:49.710Z,25.60
2018-07-25T21:56:53.023Z,25.50
2018-07-25T22:01:56.223Z,25.30
2018-07-25T22:06:59.645Z,25.00
2018-07-25T22:12:02.948Z,25.00
2018-07-25T22:17:06.271Z,24.70
2018-07-25T22:22:09.549Z,24.60
2018-07-25T22:27:12.569Z,24.60
2018-07-25T22:32:15.617Z,24.50
2018-07-25T22:37:18.799Z,24.10
2018-07-25T22:42:21.854Z,23.90
2018-07-25T22:47:24.913Z,24.00
2018-07-25T22:52:28.152Z,24.10
2018-07-25T22:57:31.192Z,23.90
2018-07-25T23:02:34.315Z,24.10
2018-07-25T23:07:37.364Z,24.00
2018-07-25T23:12:40.495Z,24.00
2018-07-25T23:17:43.736Z,24.00
2018-07-25T23:23:01.872Z,23.80
2018-07-25T23:28:05.259Z,23.60
2018-07-25T23:33:08.878Z,23.50
2018-07-25T23:38:11.844Z,23.50
2018-07-25T23:43:14.827Z,23.50
2018-07-25T23:48:17.854Z,23.40
2018-07-25T23:53:21.060Z,23.40
2018-07-25T23:58:24.760Z,23.30
